Time;durP1;ratioP1;P1;durP2;ratioP2;P2;SDS_P1;SDS_P2;PMS_P1;PMS_P2;Temp;Humidity;BMP_temperature;BMP_pressure;BME280_temperature;BME280_humidity;BME280_pressure;Samples;Min_cycle;Max_cycle;Signal;HPM_P1;HPM_P2
2020/12/09 00:01:48;;;;;;;5.85;4.15;;;15.40;56.10;;;;;;5074785;28;20025;-64
2020/12/09 00:04:13;;;;;;;5.55;3.55;;;15.50;56.10;;;;;;5074853;28;20115;-63
2020/12/09 00:06:40;;;;;;;3.75;3.35;;;15.50;56.30;;;;;;5074815;28;20116;-63
2020/12/09 00:09:10;;;;;;;6.43;3.08;;;15.50;56.10;;;;;;5056847;28;20047;-63
2020/12/09 00:11:37;;;;;;;3.83;3.22;;;15.50;56.00;;;;;;5074637;28;20057;-64
2020/12/09 00:14:03;;;;;;;5.95;3.88;;;15.50;56.10;;;;;;5074455;28;20475;-63
2020/12/09 00:16:29;;;;;;;6.60;3.78;;;15.50;55.90;;;;;;5074681;28;20478;-63
2020/12/09 00:18:56;;;;;;;6.05;3.42;;;15.60;55.90;;;;;;5074564;28;20100;-63
2020/12/09 00:21:23;;;;;;;4.80;3.47;;;15.60;55.70;;;;;;5074577;28;20056;-64
2020/12/09 00:23:49;;;;;;;4.03;3.30;;;15.60;55.70;;;;;;5074174;28;20020;-64
2020/12/09 00:26:22;;;;;;;4.43;3.22;;;15.70;55.70;;;;;;5074520;28;20087;-64
2020/12/09 00:28:49;;;;;;;4.18;3.47;;;15.70;55.60;;;;;;5074238;28;20067;-63
2020/12/09 00:31:16;;;;;;;4.35;3.60;;;15.70;55.50;;;;;;5074294;28;20016;-64
2020/12/09 00:33:44;;;;;;;4.68;3.47;;;15.80;55.60;;;;;;5074052;28;20054;-63
2020/12/09 00:36:12;;;;;;;3.78;3.30;;;15.80;55.60;;;;;;5075130;28;20052;-63
2020/12/09 00:38:38;;;;;;;3.42;3.00;;;15.80;55.60;;;;;;5074045;28;20103;-63
2020/12/09 00:41:03;;;;;;;4.15;3.30;;;15.80;55.70;;;;;;5073889;28;20594;-63
2020/12/09 00:43:29;;;;;;;3.38;3.08;;;15.70;55.50;;;;;;5074040;28;20039;-63
2020/12/09 00:45:54;;;;;;;3.97;3.15;;;15.70;55.50;;;;;;5073740;28;20446;-63
2020/12/09 00:48:20;;;;;;;5.30;3.42;;;15.70;55.50;;;;;;5074306;28;20366;-63
2020/12/09 00:50:45;;;;;;;3.58;3.10;;;15.70;55.50;;;;;;5073910;28;20028;-63
2020/12/09 00:53:11;;;;;;;3.22;2.92;;;15.70;55.50;;;;;;5073859;28;20025;-63
2020/12/09 00:55:36;;;;;;;4.78;3.33;;;15.60;55.50;;;;;;5073769;28;20028;-63
2020/12/09 00:58:02;;;;;;;3.20;2.90;;;15.60;55.50;;;;;;5073811;28;20033;-63
2020/12/09 01:00:28;;;;;;;4.28;3.17;;;15.60;55.50;;;;;;5073775;28;20081;-63
2020/12/09 01:02:53;;;;;;;4.53;3.30;;;15.60;55.50;;;;;;5073269;28;20032;-63
2020/12/09 01:05:19;;;;;;;3.92;3.22;;;15.60;55.50;;;;;;5073374;28;20048;-63
2020/12/09 01:07:44;;;;;;;3.65;2.83;;;15.50;55.40;;;;;;5073302;28;20028;-63
2020/12/09 01:10:10;;;;;;;3.75;3.33;;;15.50;55.50;;;;;;5073489;28;20146;-63
2020/12/09 01:12:40;;;;;;;3.40;3.03;;;15.50;55.50;;;;;;5073472;28;20462;-63
2020/12/09 01:15:07;;;;;;;5.38;3.47;;;15.50;55.50;;;;;;5073416;28;20024;-63
2020/12/09 01:17:33;;;;;;;3.65;3.08;;;15.50;55.50;;;;;;5073437;28;20019;-63
2020/12/09 01:19:58;;;;;;;4.07;3.35;;;15.40;55.50;;;;;;5054632;28;20020;-63
2020/12/09 01:22:24;;;;;;;5.45;3.70;;;15.40;55.50;;;;;;5073322;28;20020;-62
2020/12/09 01:24:49;;;;;;;3.78;3.38;;;15.40;55.50;;;;;;5072968;28;20092;-63
2020/12/09 01:27:15;;;;;;;3.58;3.00;;;15.40;55.40;;;;;;5073271;28;20028;-63
2020/12/09 01:29:40;;;;;;;4.93;3.60;;;15.40;55.60;;;;;;5073134;28;20568;-63
2020/12/09 01:32:06;;;;;;;4.72;3.85;;;15.40;55.60;;;;;;5072654;28;20044;-63
2020/12/09 01:34:31;;;;;;;3.50;2.78;;;15.40;55.60;;;;;;5073063;28;20025;-63
2020/12/09 01:37:00;;;;;;;4.47;3.20;;;15.50;55.70;;;;;;5074002;27;20098;-63
2020/12/09 01:39:26;;;;;;;4.15;3.13;;;15.50;55.50;;;;;;5073078;28;20017;-63
2020/12/09 01:41:52;;;;;;;3.28;2.97;;;15.50;55.40;;;;;;5073038;28;20024;-63
2020/12/09 01:44:18;;;;;;;3.80;3.50;;;15.50;55.40;;;;;;5072910;28;20047;-63
2020/12/09 01:46:44;;;;;;;3.50;3.05;;;15.60;55.40;;;;;;5072919;28;20070;-63
2020/12/09 01:49:11;;;;;;;5.05;2.83;;;15.60;55.30;;;;;;5073209;28;20064;-63
2020/12/09 01:51:37;;;;;;;4.03;3.50;;;15.60;55.30;;;;;;5072976;28;20379;-63
2020/12/09 01:54:02;;;;;;;5.07;3.40;;;15.60;55.30;;;;;;5072613;28;20028;-63
2020/12/09 01:56:28;;;;;;;3.28;2.97;;;15.60;55.20;;;;;;5072563;28;20483;-63
2020/12/09 01:58:55;;;;;;;4.07;3.30;;;15.70;55.20;;;;;;5072520;28;20021;-63
2020/12/09 02:01:21;;;;;;;4.30;3.42;;;15.70;55.20;;;;;;5072809;28;20020;-63
2020/12/09 02:03:47;;;;;;;4.25;3.22;;;15.70;55.20;;;;;;5072405;28;20532;-63
2020/12/09 02:06:18;;;;;;;4.32;3.28;;;15.70;55.10;;;;;;5072745;28;20040;-63
2020/12/09 02:08:45;;;;;;;3.88;3.25;;;15.70;55.10;;;;;;5072466;28;20017;-63
2020/12/09 02:11:11;;;;;;;3.92;3.35;;;15.80;55.10;;;;;;5072479;28;20529;-63
2020/12/09 02:13:42;;;;;;;3.92;2.88;;;15.80;55.10;;;;;;5072648;28;20017;-64
2020/12/09 02:16:07;;;;;;;4.15;3.42;;;15.80;55.00;;;;;;5072649;28;20091;-63
2020/12/09 02:18:33;;;;;;;4.80;3.42;;;15.80;55.00;;;;;;5072330;28;20056;-63
2020/12/09 02:20:59;;;;;;;3.20;2.85;;;15.80;55.00;;;;;;5072249;28;20017;-63
2020/12/09 02:23:24;;;;;;;4.25;3.35;;;15.80;55.10;;;;;;5072320;28;20108;-63
2020/12/09 02:25:50;;;;;;;3.72;3.33;;;15.80;55.00;;;;;;5054586;28;20032;-64
2020/12/09 02:28:16;;;;;;;3.78;3.40;;;15.70;54.90;;;;;;5072505;28;20056;-63
2020/12/09 02:30:41;;;;;;;3.85;3.40;;;15.70;54.80;;;;;;5072492;28;20067;-64
2020/12/09 02:33:07;;;;;;;3.90;3.50;;;15.70;54.90;;;;;;5075558;28;20027;-64
2020/12/09 02:35:34;;;;;;;4.07;3.17;;;15.60;54.90;;;;;;5077788;27;20041;-63
2020/12/09 02:38:00;;;;;;;4.13;3.17;;;15.60;54.90;;;;;;5076285;28;20016;-64
2020/12/09 02:40:26;;;;;;;4.85;3.42;;;15.60;54.90;;;;;;5076293;28;20037;-63
2020/12/09 02:42:51;;;;;;;3.95;3.50;;;15.60;55.00;;;;;;5076768;28;20012;-63
2020/12/09 02:45:17;;;;;;;3.33;3.03;;;15.50;54.90;;;;;;5076298;28;20056;-63
2020/12/09 02:47:43;;;;;;;4.18;3.78;;;15.50;54.90;;;;;;5076168;28;20056;-63
2020/12/09 02:50:08;;;;;;;4.00;3.60;;;15.50;55.00;;;;;;5076083;28;20048;-63
2020/12/09 02:52:34;;;;;;;4.05;3.50;;;15.50;55.00;;;;;;5076073;28;20111;-63
2020/12/09 02:55:00;;;;;;;3.85;3.45;;;15.50;55.00;;;;;;5076635;28;20082;-64
2020/12/09 02:57:25;;;;;;;3.65;3.35;;;15.50;55.10;;;;;;5075905;28;20033;-63
2020/12/09 02:59:51;;;;;;;3.65;3.13;;;15.50;55.00;;;;;;5075874;28;20028;-63
2020/12/09 03:02:16;;;;;;;4.40;3.42;;;15.50;55.00;;;;;;5075647;28;20028;-64
2020/12/09 03:04:42;;;;;;;3.67;3.38;;;15.50;54.80;;;;;;5075650;28;20302;-63
2020/12/09 03:07:08;;;;;;;4.25;3.83;;;15.60;54.90;;;;;;5075665;28;20033;-63
2020/12/09 03:09:34;;;;;;;3.88;3.47;;;15.60;54.70;;;;;;5075681;28;20035;-63
2020/12/09 03:11:59;;;;;;;3.92;3.55;;;15.70;54.70;;;;;;5075608;28;20025;-63
2020/12/09 03:14:25;;;;;;;3.67;3.22;;;15.60;54.60;;;;;;5075669;28;20115;-64
2020/12/09 03:16:50;;;;;;;3.95;3.38;;;15.70;54.60;;;;;;5075812;28;20013;-64
2020/12/09 03:19:16;;;;;;;4.10;3.60;;;15.70;54.50;;;;;;5075687;28;20329;-64
2020/12/09 03:21:43;;;;;;;5.60;3.65;;;15.80;54.50;;;;;;5075747;28;20435;-63
2020/12/09 03:24:11;;;;;;;3.50;3.20;;;15.80;54.50;;;;;;5075557;28;20032;-64
2020/12/09 03:26:37;;;;;;;4.00;3.60;;;15.80;54.40;;;;;;5075290;28;20115;-63
2020/12/09 03:29:03;;;;;;;3.58;3.28;;;15.80;54.40;;;;;;5057336;28;20116;-63
2020/12/09 03:31:29;;;;;;;3.90;3.55;;;15.80;54.40;;;;;;5075163;28;20031;-63
2020/12/09 03:33:54;;;;;;;4.13;3.55;;;15.80;54.40;;;;;;5075514;28;20020;-63
2020/12/09 03:36:20;;;;;;;3.35;3.05;;;15.80;54.50;;;;;;5076591;28;20055;-63
2020/12/09 03:38:45;;;;;;;3.63;3.28;;;15.80;54.50;;;;;;5075376;28;20059;-63
2020/12/09 03:41:11;;;;;;;3.78;3.33;;;15.80;54.40;;;;;;5075115;28;20487;-63
2020/12/09 03:43:36;;;;;;;4.00;3.60;;;15.80;54.20;;;;;;5074461;28;20024;-63
2020/12/09 03:46:02;;;;;;;4.32;3.47;;;15.70;54.30;;;;;;5075057;28;20028;-63
2020/12/09 03:48:28;;;;;;;4.38;3.97;;;15.70;54.30;;;;;;5057265;28;20024;-63
2020/12/09 03:50:53;;;;;;;4.30;3.90;;;15.70;54.40;;;;;;5075180;28;20017;-63
2020/12/09 03:53:20;;;;;;;3.53;3.22;;;15.60;54.20;;;;;;5075155;28;20032;-63
2020/12/09 03:55:46;;;;;;;3.83;3.40;;;15.70;54.30;;;;;;5075142;28;20059;-63
2020/12/09 03:58:12;;;;;;;4.13;3.72;;;15.60;54.30;;;;;;5075034;28;20052;-63
2020/12/09 04:00:37;;;;;;;4.05;3.65;;;15.60;54.40;;;;;;5074981;28;20365;-63
2020/12/09 04:03:03;;;;;;;4.13;3.72;;;15.60;54.30;;;;;;5074865;28;20079;-63
2020/12/09 04:05:29;;;;;;;3.58;3.25;;;15.60;54.50;;;;;;5074653;28;20106;-63
2020/12/09 04:07:54;;;;;;;4.30;3.75;;;15.50;54.50;;;;;;5074631;28;20090;-63
2020/12/09 04:10:20;;;;;;;3.88;3.38;;;15.60;54.40;;;;;;5074559;28;20075;-63
2020/12/09 04:12:45;;;;;;;4.05;3.55;;;15.60;54.40;;;;;;5074808;28;20067;-63
2020/12/09 04:15:11;;;;;;;4.22;3.85;;;15.60;54.30;;;;;;5074801;28;20016;-63
2020/12/09 04:17:37;;;;;;;3.83;3.53;;;15.70;54.30;;;;;;5074755;28;20013;-63
2020/12/09 04:20:04;;;;;;;3.20;2.90;;;15.40;54.10;;;;;;5074385;28;20101;-63
2020/12/09 04:22:29;;;;;;;3.92;3.53;;;15.80;54.20;;;;;;5074520;28;20036;-63
2020/12/09 04:24:55;;;;;;;3.92;3.53;;;15.80;54.20;;;;;;5074502;28;20090;-63
2020/12/09 04:27:21;;;;;;;4.18;3.63;;;15.80;54.20;;;;;;5074256;28;20024;-64
2020/12/09 04:29:46;;;;;;;4.82;3.45;;;15.70;54.10;;;;;;5074486;28;20103;-63
2020/12/09 04:32:12;;;;;;;3.55;3.17;;;15.80;54.10;;;;;;5074152;28;20351;-63
2020/12/09 04:34:38;;;;;;;3.53;3.22;;;15.80;54.10;;;;;;5074377;28;20028;-63
2020/12/09 04:37:04;;;;;;;3.15;2.85;;;15.80;54.10;;;;;;5075564;27;20162;-63
2020/12/09 04:39:30;;;;;;;3.97;3.58;;;15.80;54.20;;;;;;5074302;28;20017;-63
2020/12/09 04:41:56;;;;;;;4.45;4.05;;;15.80;54.20;;;;;;5074192;28;20020;-63
2020/12/09 04:44:23;;;;;;;3.90;3.50;;;15.80;53.90;;;;;;5074075;28;20472;-63
2020/12/09 04:46:51;;;;;;;3.90;3.40;;;15.80;54.20;;;;;;5074064;28;20059;-63
2020/12/09 04:49:24;;;;;;;3.60;3.30;;;15.60;54.00;;;;;;5074136;28;20025;-63
2020/12/09 04:52:32;;;;;;;4.20;3.80;;;15.70;54.00;;;;;;5074062;28;20028;-63
2020/12/09 04:55:08;;;;;;;4.25;3.85;;;15.70;54.00;;;;;;5073061;28;20428;-63
2020/12/09 04:57:37;;;;;;;4.28;3.70;;;15.70;54.00;;;;;;5073979;28;20075;-63
2020/12/09 05:00:07;;;;;;;4.90;4.07;;;15.60;54.00;;;;;;5073556;28;20463;-63
2020/12/09 05:02:48;;;;;;;4.20;3.80;;;15.60;54.00;;;;;;5073514;28;20082;-63
2020/12/09 05:05:19;;;;;;;4.60;4.18;;;15.60;53.90;;;;;;5073698;28;20071;-62
2020/12/09 05:07:49;;;;;;;4.60;4.20;;;15.50;54.00;;;;;;5073701;28;20025;-63
2020/12/09 05:10:18;;;;;;;;;;;15.50;54.00;;;;;;5074013;28;20024;-63
2020/12/09 05:12:49;;;;;;;5.00;4.30;;;15.50;54.10;;;;;;5073683;28;19905;-63
2020/12/09 05:15:19;;;;;;;5.45;4.95;;;15.50;54.20;;;;;;5073648;28;20104;-63
2020/12/09 05:18:03;;;;;;;5.53;4.43;;;15.60;54.10;;;;;;5073486;28;20035;-64
2020/12/09 05:20:32;;;;;;;4.63;4.10;;;15.60;54.00;;;;;;5073456;28;20024;-64
2020/12/09 05:22:58;;;;;;;4.32;3.85;;;15.60;54.00;;;;;;5073443;28;20131;-65
2020/12/09 05:25:25;;;;;;;5.05;4.63;;;15.70;53.90;;;;;;5073224;28;20040;-64
2020/12/09 05:27:53;;;;;;;4.78;4.00;;;15.70;53.90;;;;;;5073328;28;20099;-64
2020/12/09 05:30:37;;;;;;;4.45;4.05;;;15.70;54.00;;;;;;5072976;28;20029;-64
2020/12/09 05:33:02;;;;;;;4.75;4.28;;;15.70;54.20;;;;;;5073012;28;20024;-64
2020/12/09 05:35:28;;;;;;;5.25;4.75;;;15.70;54.20;;;;;;5073895;28;20032;-64
2020/12/09 05:38:15;;;;;;;4.82;4.32;;;15.70;54.00;;;;;;5072915;28;20075;-64
2020/12/09 05:40:42;;;;;;;5.47;4.50;;;15.80;54.00;;;;;;5073245;28;20435;-64
2020/12/09 05:43:08;;;;;;;4.80;4.30;;;15.80;54.00;;;;;;5073186;28;20040;-64
2020/12/09 05:45:34;;;;;;;4.85;4.30;;;15.80;54.00;;;;;;5073089;28;20075;-64
2020/12/09 05:48:24;;;;;;;6.68;4.70;;;15.80;53.90;;;;;;5072842;28;20104;-65
2020/12/09 05:50:51;;;;;;;5.83;4.90;;;15.80;53.90;;;;;;5073093;28;20100;-64
2020/12/09 05:53:19;;;;;;;4.93;4.50;;;15.80;53.90;;;;;;5072703;28;20031;-65
2020/12/09 05:55:45;;;;;;;4.78;4.20;;;15.90;53.90;;;;;;5072673;28;20103;-65
2020/12/09 05:58:19;;;;;;;5.68;5.07;;;15.80;54.00;;;;;;5072627;28;20059;-65
2020/12/09 06:01:06;;;;;;;5.82;5.22;;;15.80;54.00;;;;;;5072914;28;20060;-62
2020/12/09 06:03:33;;;;;;;6.18;5.15;;;15.80;54.00;;;;;;5072812;28;20028;-62
2020/12/09 06:06:08;;;;;;;5.70;5.10;;;15.80;54.10;;;;;;5072254;28;20059;-62
2020/12/09 06:08:37;;;;;;;5.78;5.10;;;15.80;53.90;;;;;;5072783;28;20434;-62
2020/12/09 06:11:03;;;;;;;5.05;4.55;;;15.80;53.80;;;;;;5072781;28;20375;-62
2020/12/09 06:13:32;;;;;;;5.20;4.68;;;15.90;53.90;;;;;;5072516;28;20040;-62
2020/12/09 06:16:00;;;;;;;5.57;4.85;;;15.80;53.70;;;;;;5072536;28;20124;-62
2020/12/09 06:18:28;;;;;;;5.28;4.78;;;15.90;53.70;;;;;;5072700;28;20382;-62
2020/12/09 06:20:54;;;;;;;5.18;4.45;;;15.90;53.60;;;;;;5072679;28;20059;-62
2020/12/09 06:23:20;;;;;;;6.90;5.20;;;16.00;53.70;;;;;;5072442;28;20063;-64
2020/12/09 06:25:48;;;;;;;5.53;4.97;;;16.00;53.50;;;;;;5072612;28;20111;-64
2020/12/09 06:28:22;;;;;;;5.50;4.97;;;16.00;53.40;;;;;;5072719;28;20074;-64
2020/12/09 06:30:49;;;;;;;6.15;5.38;;;16.10;53.40;;;;;;5072582;28;20070;-64
2020/12/09 06:33:54;;;;;;;7.60;5.43;;;16.10;53.30;;;;;;5072504;28;20019;-64
2020/12/09 06:36:25;;;;;;;5.70;5.10;;;16.10;53.20;;;;;;5023312;27;20036;-64
2020/12/09 06:39:06;;;;;;;5.90;4.93;;;16.10;53.10;;;;;;5054118;28;20085;-64
2020/12/09 06:41:33;;;;;;;5.75;5.07;;;16.10;53.10;;;;;;5072517;28;20119;-64
2020/12/09 06:44:13;;;;;;;5.65;4.97;;;16.20;53.00;;;;;;5072068;28;20055;-64
2020/12/09 06:46:38;;;;;;;;;;;16.20;52.90;;;;;;5072918;28;20112;-66
2020/12/09 06:49:05;;;;;;;6.80;5.07;;;16.20;52.90;;;;;;5072067;28;19940;-66
2020/12/09 06:51:38;;;;;;;5.35;4.63;;;16.90;53.40;;;;;;5071534;28;20017;-66
2020/12/09 06:54:14;;;;;;;7.43;5.18;;;16.30;53.60;;;;;;5071119;28;20016;-65
2020/12/09 06:56:40;;;;;;;6.32;5.07;;;16.30;52.80;;;;;;5072080;28;20104;-65
2020/12/09 06:59:27;;;;;;;5.72;4.85;;;16.30;52.80;;;;;;5072228;28;20229;-64
2020/12/09 07:02:04;;;;;;;5.38;4.60;;;16.30;52.80;;;;;;5072223;28;20083;-64
2020/12/09 07:04:54;;;;;;;5.43;4.88;;;16.40;52.70;;;;;;5072139;28;20082;-65
2020/12/09 07:07:26;;;;;;;;;;;16.40;52.60;;;;;;5072658;28;20176;-64
2020/12/09 07:09:52;;;;;;;5.18;4.53;;;16.40;52.60;;;;;;5071947;28;20346;-64
2020/12/09 07:12:20;;;;;;;5.55;4.80;;;16.40;53.30;;;;;;5072183;28;20035;-65
2020/12/09 07:14:50;;;;;;;5.72;4.90;;;16.50;52.60;;;;;;5072027;28;20637;-64
2020/12/09 07:17:17;;;;;;;7.05;5.38;;;16.50;52.50;;;;;;5071959;28;20024;-64
2020/12/09 07:19:43;;;;;;;5.68;5.07;;;16.50;52.50;;;;;;5075021;28;20402;-64
2020/12/09 07:22:08;;;;;;;6.43;4.68;;;16.50;52.50;;;;;;5074858;28;20028;-64
2020/12/09 07:24:34;;;;;;;6.82;5.28;;;16.50;52.50;;;;;;5075127;28;20025;-64
2020/12/09 07:27:00;;;;;;;7.00;4.72;;;16.50;52.50;;;;;;5075351;28;20034;-65
2020/12/09 07:29:25;;;;;;;5.38;4.70;;;16.60;52.50;;;;;;5075561;28;20110;-65
2020/12/09 07:31:56;;;;;;;6.68;5.15;;;16.60;52.50;;;;;;5075476;28;20469;-64
2020/12/09 07:34:22;;;;;;;8.18;5.53;;;16.60;52.60;;;;;;5075485;28;20028;-63
2020/12/09 07:36:50;;;;;;;9.00;5.47;;;16.60;52.70;;;;;;5076627;27;20040;-63
2020/12/09 07:39:27;;;;;;;6.47;5.25;;;16.60;53.20;;;;;;5075286;28;20032;-64
2020/12/09 07:41:56;;;;;;;7.03;5.30;;;16.70;53.00;;;;;;5075261;28;20025;-63
2020/12/09 07:44:22;;;;;;;7.15;5.32;;;16.70;52.40;;;;;;5074961;28;20044;-64
2020/12/09 07:46:55;;;;;;;8.00;5.43;;;16.70;52.40;;;;;;5075279;28;20043;-64
2020/12/09 07:49:21;;;;;;;8.77;5.30;;;16.70;52.30;;;;;;5074010;28;20429;-65
2020/12/09 07:51:48;;;;;;;9.27;5.63;;;16.80;52.30;;;;;;5073693;28;20017;-64
2020/12/09 07:54:14;;;;;;;8.13;5.65;;;16.80;52.20;;;;;;5073703;28;20029;-65
2020/12/09 07:56:40;;;;;;;8.13;5.30;;;16.90;52.30;;;;;;5073689;28;20282;-65
2020/12/09 07:59:06;;;;;;;6.80;5.80;;;17.00;52.40;;;;;;5073553;28;20583;-64
2020/12/09 08:01:31;;;;;;;8.02;5.63;;;17.10;52.50;;;;;;5073516;28;20024;-64
2020/12/09 08:03:57;;;;;;;7.30;6.18;;;17.10;52.40;;;;;;5073940;28;20562;-64
2020/12/09 08:06:23;;;;;;;6.53;5.32;;;17.20;52.40;;;;;;5074922;28;20104;-64
2020/12/09 08:08:50;;;;;;;7.25;5.32;;;17.30;52.70;;;;;;5074583;28;20028;-64
2020/12/09 08:11:16;;;;;;;10.07;6.13;;;17.40;52.60;;;;;;5074778;28;20033;-64
2020/12/09 08:13:41;;;;;;;8.00;5.90;;;17.40;52.70;;;;;;5074769;28;20024;-64
2020/12/09 08:16:12;;;;;;;6.10;5.38;;;17.40;52.60;;;;;;5074714;28;20112;-65
2020/12/09 08:18:38;;;;;;;;;;;17.50;52.50;;;;;;5075224;28;20027;-65
2020/12/09 08:21:04;;;;;;;6.65;5.95;;;17.50;52.40;;;;;;5074637;28;20318;-63
2020/12/09 08:23:50;;;;;;;7.38;4.72;;;17.40;52.30;;;;;;5074638;28;20372;-62
2020/12/09 08:26:36;;;;;;;8.95;6.03;;;17.40;52.30;;;;;;5074404;28;20036;-64
2020/12/09 08:29:02;;;;;;;7.90;6.18;;;17.40;52.20;;;;;;5074495;28;20021;-64
2020/12/09 08:31:27;;;;;;;9.25;5.53;;;17.40;52.00;;;;;;5073860;28;20024;-64
2020/12/09 08:33:53;;;;;;;7.55;5.72;;;17.40;51.90;;;;;;5074264;28;20108;-65
2020/12/09 08:36:21;;;;;;;6.55;5.47;;;17.40;51.90;;;;;;5075412;27;20036;-64
2020/12/09 08:38:52;;;;;;;7.65;6.15;;;17.40;51.70;;;;;;5073992;28;20044;-64
2020/12/09 08:44:07;;;;;;;7.75;5.82;;;17.40;51.60;;;;;;5044015;28;20126;-63
2020/12/09 08:46:39;;;;;;;6.75;5.72;;;17.40;51.60;;;;;;5073860;28;20466;-64
2020/12/09 08:49:04;;;;;;;7.95;5.70;;;17.40;51.50;;;;;;5073763;28;20029;-64
2020/12/09 08:51:33;;;;;;;7.57;5.55;;;17.40;51.50;;;;;;5055911;28;20031;-64
2020/12/09 08:54:05;;;;;;;6.97;6.03;;;17.40;51.40;;;;;;5073564;28;20017;-64
2020/12/09 08:56:38;;;;;;;7.85;5.60;;;17.40;51.30;;;;;;5073616;28;20482;-64
2020/12/09 08:59:03;;;;;;;8.85;5.90;;;17.30;51.30;;;;;;5073781;28;20020;-63
2020/12/09 09:01:35;;;;;;;10.13;6.25;;;17.20;51.40;;;;;;5073479;28;20038;-63
2020/12/09 09:04:06;;;;;;;7.95;6.07;;;17.20;51.60;;;;;;5072889;28;20044;-63
2020/12/09 09:06:32;;;;;;;8.00;6.55;;;17.10;51.70;;;;;;5073749;28;20036;-63
2020/12/09 09:08:57;;;;;;;7.97;6.38;;;17.00;51.70;;;;;;5073296;28;20070;-63
2020/12/09 09:11:24;;;;;;;7.40;6.03;;;17.00;52.00;;;;;;5073513;28;20020;-63
2020/12/09 09:13:50;;;;;;;8.10;6.28;;;17.10;52.10;;;;;;5073255;28;20040;-63
2020/12/09 09:16:16;;;;;;;7.93;5.70;;;16.90;51.80;;;;;;5073101;28;20051;-63
2020/12/09 09:18:41;;;;;;;8.20;6.22;;;16.90;51.80;;;;;;5072846;28;20020;-64
2020/12/09 09:21:08;;;;;;;8.43;6.40;;;16.90;51.70;;;;;;5072737;28;20441;-64
2020/12/09 09:23:33;;;;;;;8.48;5.78;;;16.90;51.70;;;;;;5073344;28;20108;-64
2020/12/09 09:26:06;;;;;;;8.25;5.57;;;16.90;51.60;;;;;;5073238;28;20144;-64
2020/12/09 09:28:32;;;;;;;7.10;5.70;;;17.00;51.50;;;;;;5073293;28;20462;-64
2020/12/09 09:30:57;;;;;;;8.48;6.07;;;17.00;51.40;;;;;;5073215;28;20032;-64
2020/12/09 09:33:23;;;;;;;7.22;5.65;;;17.00;51.30;;;;;;5072908;28;20024;-64
2020/12/09 09:35:48;;;;;;;6.57;5.65;;;17.00;51.40;;;;;;5073116;28;20027;-64
2020/12/09 09:38:20;;;;;;;6.85;5.75;;;17.00;51.30;;;;;;5073963;27;20486;-65
2020/12/09 09:40:53;;;;;;;8.55;6.35;;;17.10;51.20;;;;;;5072612;28;20088;-64
2020/12/09 09:43:18;;;;;;;9.60;6.10;;;17.00;51.10;;;;;;5073166;28;20032;-65
2020/12/09 09:45:44;;;;;;;7.38;5.85;;;17.10;51.20;;;;;;5072922;28;20036;-65
2020/12/09 09:48:09;;;;;;;8.70;6.53;;;17.10;51.20;;;;;;5072414;28;20123;-64
2020/12/09 09:50:35;;;;;;;8.07;6.30;;;17.10;51.10;;;;;;5072588;28;20040;-64
2020/12/09 09:53:00;;;;;;;7.32;5.78;;;17.10;51.10;;;;;;5072931;28;20013;-65
2020/12/09 09:55:26;;;;;;;6.75;5.57;;;17.10;51.20;;;;;;5072764;28;20056;-64
2020/12/09 09:57:51;;;;;;;8.10;5.93;;;17.10;51.10;;;;;;5072686;28;20470;-65
2020/12/09 10:00:17;;;;;;;7.63;6.28;;;17.10;51.00;;;;;;5072836;28;20019;-64
2020/12/09 10:02:43;;;;;;;7.68;5.95;;;17.10;50.90;;;;;;5054860;28;20374;-64
2020/12/09 10:05:08;;;;;;;8.18;5.85;;;17.10;51.00;;;;;;5072796;28;20036;-64
2020/12/09 10:07:34;;;;;;;8.02;6.18;;;17.10;50.90;;;;;;5072774;28;20020;-63
2020/12/09 10:10:03;;;;;;;8.55;6.38;;;17.10;50.90;;;;;;5072722;28;20356;-64
2020/12/09 10:12:30;;;;;;;8.52;6.00;;;17.10;50.80;;;;;;5072588;28;20013;-64
2020/12/09 10:14:56;;;;;;;9.85;6.85;;;17.10;50.90;;;;;;5072599;28;20037;-64
2020/12/09 10:17:22;;;;;;;9.10;6.63;;;17.20;50.90;;;;;;5054351;28;20013;-64
2020/12/09 10:19:47;;;;;;;9.23;6.40;;;17.10;50.70;;;;;;5072640;28;20039;-64
2020/12/09 10:22:13;;;;;;;9.07;6.80;;;17.10;50.60;;;;;;5071981;28;20029;-64
2020/12/09 10:24:39;;;;;;;9.35;7.05;;;17.10;50.90;;;;;;5072373;28;20024;-63
2020/12/09 10:27:11;;;;;;;8.18;6.13;;;17.10;50.70;;;;;;5072511;28;20025;-64
2020/12/09 10:29:37;;;;;;;9.25;7.03;;;17.20;50.70;;;;;;5072052;28;20035;-64
2020/12/09 10:32:02;;;;;;;10.32;7.20;;;17.20;50.60;;;;;;5072457;28;20020;-64
2020/12/09 10:34:28;;;;;;;9.38;6.45;;;17.20;50.70;;;;;;5072478;28;20383;-64
2020/12/09 10:36:53;;;;;;;8.20;6.35;;;17.20;50.60;;;;;;5073225;28;20072;-64
2020/12/09 10:39:23;;;;;;;10.02;6.88;;;17.20;50.60;;;;;;5072308;28;20025;-64
2020/12/09 10:41:49;;;;;;;9.63;6.35;;;17.20;50.40;;;;;;5072426;28;20016;-64
2020/12/09 10:44:15;;;;;;;10.68;7.35;;;17.20;50.50;;;;;;5072216;28;20024;-64
2020/12/09 10:46:41;;;;;;;10.15;7.18;;;17.20;50.60;;;;;;5071966;28;20393;-65
2020/12/09 10:49:09;;;;;;;9.30;6.32;;;17.20;50.50;;;;;;5072247;28;20017;-64
2020/12/09 10:51:41;;;;;;;9.63;6.93;;;17.20;50.50;;;;;;5072128;28;20070;-65
2020/12/09 10:54:07;;;;;;;9.57;6.40;;;17.20;50.50;;;;;;5074785;28;20032;-67
2020/12/09 10:56:32;;;;;;;9.27;7.10;;;17.20;50.60;;;;;;5076270;28;20025;-65
2020/12/09 10:58:58;;;;;;;8.93;6.78;;;17.20;50.50;;;;;;5075718;28;20078;-64
2020/12/09 11:01:25;;;;;;;11.55;7.22;;;17.20;50.50;;;;;;5075937;28;20024;-65
2020/12/09 11:03:52;;;;;;;9.30;6.53;;;17.10;50.50;;;;;;5076079;28;20108;-64
2020/12/09 11:06:17;;;;;;;10.02;6.78;;;17.20;50.80;;;;;;5075677;28;20490;-64
2020/12/09 11:08:43;;;;;;;11.13;7.28;;;17.20;51.00;;;;;;5075820;28;20125;-64
2020/12/09 11:11:09;;;;;;;10.02;7.07;;;17.20;51.30;;;;;;5075859;28;20493;-65
2020/12/09 11:13:35;;;;;;;9.82;6.45;;;17.20;51.60;;;;;;5075950;28;20009;-65
2020/12/09 11:16:01;;;;;;;9.05;7.10;;;17.20;51.50;;;;;;5076281;28;20017;-65
2020/12/09 11:18:26;;;;;;;8.32;6.32;;;17.20;51.50;;;;;;5075727;28;20112;-65
2020/12/09 11:20:52;;;;;;;9.55;7.03;;;17.20;51.40;;;;;;5075645;28;20474;-65
2020/12/09 11:23:18;;;;;;;9.57;6.70;;;17.10;51.40;;;;;;5075305;28;20031;-65
2020/12/09 11:25:43;;;;;;;9.60;6.75;;;17.20;51.40;;;;;;5075678;28;20028;-65
2020/12/09 11:28:09;;;;;;;9.43;6.82;;;17.10;51.40;;;;;;5075396;28;20492;-65
2020/12/09 11:30:35;;;;;;;9.18;6.50;;;17.20;51.30;;;;;;5075635;28;20032;-65
2020/12/09 11:33:00;;;;;;;9.77;7.03;;;17.10;51.30;;;;;;5075316;28;20017;-64
2020/12/09 11:35:26;;;;;;;9.50;6.60;;;17.10;52.00;;;;;;5075188;28;20059;-65
2020/12/09 11:37:54;;;;;;;10.43;7.47;;;17.10;51.40;;;;;;5076279;27;20048;-65
2020/12/09 11:40:23;;;;;;;9.75;7.28;;;17.00;51.30;;;;;;5075456;28;20111;-65
2020/12/09 11:42:49;;;;;;;12.07;7.75;;;17.00;51.00;;;;;;5075180;28;20051;-65
2020/12/09 11:45:14;;;;;;;10.50;7.72;;;17.00;51.10;;;;;;5075157;28;20025;-65
2020/12/09 11:47:40;;;;;;;9.93;7.07;;;16.90;51.50;;;;;;5074902;28;20423;-65
2020/12/09 11:50:06;;;;;;;11.55;7.28;;;16.90;51.40;;;;;;5074979;28;20098;-64
2020/12/09 11:52:31;;;;;;;10.65;7.57;;;16.80;51.30;;;;;;5075197;28;20095;-65
2020/12/09 11:54:57;;;;;;;10.68;7.80;;;16.70;51.60;;;;;;5074973;28;20421;-65
2020/12/09 11:57:22;;;;;;;11.10;7.78;;;16.70;51.60;;;;;;5074966;28;20017;-65
2020/12/09 11:59:48;;;;;;;11.02;8.02;;;16.70;52.20;;;;;;5074704;28;20075;-64
2020/12/09 12:02:13;;;;;;;11.90;7.97;;;16.70;51.20;;;;;;5075081;28;20073;-64
2020/12/09 12:04:40;;;;;;;9.48;7.25;;;16.70;51.80;;;;;;5074161;28;20040;-64
2020/12/09 12:07:06;;;;;;;10.65;7.53;;;16.70;51.50;;;;;;5074892;28;20036;-63
2020/12/09 12:09:32;;;;;;;9.50;7.30;;;16.70;51.50;;;;;;5074757;28;20379;-65
2020/12/09 12:11:57;;;;;;;9.88;7.28;;;16.70;51.40;;;;;;5074831;28;20524;-65
2020/12/09 12:14:23;;;;;;;11.23;7.35;;;16.70;51.30;;;;;;5074202;28;20204;-65
2020/12/09 12:16:48;;;;;;;14.55;6.82;;;16.80;51.30;;;;;;5074441;28;20029;-64
2020/12/09 12:19:17;;;;;;;9.20;7.25;;;16.80;51.40;;;;;;5074682;28;20036;-65
2020/12/09 12:21:43;;;;;;;9.85;7.05;;;16.80;51.30;;;;;;5074736;28;20052;-64
2020/12/09 12:24:08;;;;;;;9.73;7.10;;;16.80;51.40;;;;;;5073568;28;20493;-65
2020/12/09 12:26:34;;;;;;;11.00;7.75;;;16.80;51.40;;;;;;5073799;28;20032;-64
2020/12/09 12:29:00;;;;;;;10.05;7.15;;;16.80;51.30;;;;;;5074310;28;20016;-64
2020/12/09 12:31:25;;;;;;;11.27;7.80;;;16.80;51.20;;;;;;5074130;28;20108;-64
2020/12/09 12:33:51;;;;;;;10.52;7.03;;;16.80;51.30;;;;;;5074105;28;20051;-64
2020/12/09 12:36:21;;;;;;;9.27;7.03;;;16.90;51.30;;;;;;5074768;27;20079;-63
2020/12/09 12:38:46;;;;;;;10.07;7.03;;;16.90;51.30;;;;;;5054009;28;20079;-63
2020/12/09 12:41:12;;;;;;;8.60;6.75;;;16.90;51.10;;;;;;5054286;28;20094;-64
2020/12/09 12:43:39;;;;;;;9.45;6.80;;;16.90;51.20;;;;;;5054378;28;20501;-64
2020/12/09 12:46:05;;;;;;;9.82;6.63;;;16.90;51.20;;;;;;5054223;28;20036;-64
2020/12/09 12:48:30;;;;;;;9.65;7.22;;;16.90;51.10;;;;;;5053946;28;20383;-64
2020/12/09 12:50:56;;;;;;;9.15;6.43;;;16.90;51.00;;;;;;5054157;28;20037;-64
2020/12/09 12:53:21;;;;;;;10.85;7.75;;;17.00;51.10;;;;;;5054083;28;20017;-64